createdAt,value
2022-08-01T00:00:02.419Z,19.26
2022-08-01T00:02:29.392Z,19.25
2022-08-01T00:04:55.944Z,19.29
2022-08-01T00:07:22.383Z,19.26
2022-08-01T00:09:49.200Z,19.26
2022-08-01T00:12:15.694Z,19.24
2022-08-01T00:14:42.130Z,19.24
2022-08-01T00:17:08.601Z,19.21
2022-08-01T00:19:35.182Z,19.16
2022-08-01T00:22:01.729Z,19.14
2022-08-01T00:24:28.184Z,19.16
2022-08-01T00:26:54.627Z,19.15
2022-08-01T00:30:09.559Z,19.10
2022-08-01T00:32:08.373Z,19.11
2022-08-01T00:34:35.049Z,19.11
2022-08-01T00:37:01.578Z,19.10
2022-08-01T00:39:28.078Z,19.10
2022-08-01T00:42:07.883Z,19.07
2022-08-01T00:44:35.362Z,19.07
2022-08-01T00:47:02.461Z,19.05
2022-08-01T00:49:29.395Z,19.02
2022-08-01T00:51:56.356Z,18.98
2022-08-01T00:54:24.783Z,18.97
2022-08-01T00:56:51.301Z,18.98
2022-08-01T00:59:18.821Z,18.98
2022-08-01T01:01:47.093Z,18.99
2022-08-01T01:04:17.303Z,18.95
2022-08-01T01:06:58.891Z,18.93
2022-08-01T01:09:43.996Z,18.95
2022-08-01T01:12:16.786Z,18.94
2022-08-01T01:15:02.086Z,18.94
2022-08-01T01:17:51.390Z,18.92
2022-08-01T01:20:19.581Z,18.95
2022-08-01T01:23:04.741Z,18.93
2022-08-01T01:25:59.496Z,18.93
2022-08-01T01:28:45.145Z,18.92
2022-08-01T01:31:14.050Z,18.90
2022-08-01T01:33:47.010Z,18.92
2022-08-01T01:36:17.138Z,18.87
2022-08-01T01:38:46.416Z,18.86
2022-08-01T01:41:15.214Z,18.88
2022-08-01T01:43:43.249Z,18.87
2022-08-01T01:46:11.755Z,18.87
2022-08-01T01:48:39.820Z,18.86
2022-08-01T01:51:07.637Z,18.84
2022-08-01T01:53:35.878Z,18.84
2022-08-01T01:56:04.230Z,18.82
2022-08-01T01:58:33.995Z,18.82
2022-08-01T02:01:03.595Z,18.84
2022-08-01T02:03:32.417Z,18.84
2022-08-01T02:06:00.172Z,18.80
2022-08-01T02:08:28.641Z,18.77
2022-08-01T02:11:17.380Z,18.77
2022-08-01T02:13:45.037Z,18.76
2022-08-01T02:16:12.760Z,18.76
2022-08-01T02:18:39.819Z,18.79
2022-08-01T02:21:10.758Z,18.78
2022-08-01T02:23:38.328Z,18.76
2022-08-01T02:26:14.502Z,18.77
2022-08-01T02:29:14.317Z,18.78
2022-08-01T02:31:45.989Z,18.72
2022-08-01T02:34:16.682Z,18.70
2022-08-01T02:36:45.643Z,18.73
2022-08-01T02:39:17.229Z,18.73
2022-08-01T02:41:49.009Z,18.73
2022-08-01T02:44:30.026Z,18.73
2022-08-01T02:47:03.365Z,18.75
2022-08-01T02:49:34.186Z,18.74
2022-08-01T02:52:05.179Z,18.74
2022-08-01T02:54:33.533Z,18.70
2022-08-01T02:57:02.522Z,18.70
2022-08-01T02:59:32.873Z,18.71
2022-08-01T03:02:03.074Z,18.73
2022-08-01T03:04:31.058Z,18.72
2022-08-01T03:06:59.484Z,18.69
2022-08-01T03:09:28.543Z,18.68
2022-08-01T03:11:58.445Z,18.71
2022-08-01T03:14:26.421Z,18.71
2022-08-01T03:16:55.041Z,18.69
2022-08-01T03:19:25.411Z,18.66
2022-08-01T03:21:53.143Z,18.64
2022-08-01T03:24:21.061Z,18.66
2022-08-01T03:26:49.484Z,18.63
2022-08-01T03:29:23.891Z,18.64
2022-08-01T03:31:51.090Z,18.61
2022-08-01T03:34:18.679Z,18.62
2022-08-01T03:37:11.877Z,18.60
2022-08-01T03:39:45.692Z,18.58
2022-08-01T03:42:20.069Z,18.57
2022-08-01T03:44:55.687Z,18.55
2022-08-01T03:47:30.583Z,18.56
2022-08-01T03:49:58.831Z,18.56
2022-08-01T03:52:28.354Z,18.54
2022-08-01T03:54:57.225Z,18.51
2022-08-01T03:57:35.806Z,18.50
2022-08-01T04:00:08.113Z,18.45
2022-08-01T04:02:35.367Z,18.44
2022-08-01T04:05:03.516Z,18.40
2022-08-01T04:07:33.579Z,18.38
2022-08-01T04:10:00.259Z,18.34
2022-08-01T04:12:26.743Z,18.33
2022-08-01T04:14:53.219Z,18.31
2022-08-01T04:17:19.879Z,18.30
2022-08-01T04:19:47.096Z,18.29
2022-08-01T04:22:15.977Z,18.29
2022-08-01T04:24:45.741Z,18.30
2022-08-01T04:27:20.124Z,18.33
2022-08-01T04:30:07.781Z,18.38
2022-08-01T04:32:38.690Z,18.38
2022-08-01T04:35:34.857Z,18.39
2022-08-01T04:37:58.855Z,18.37
2022-08-01T04:40:27.232Z,18.37
2022-08-01T04:42:54.225Z,18.33
2022-08-01T04:45:22.603Z,18.36
2022-08-01T04:47:50.417Z,18.40
2022-08-01T04:50:17.937Z,18.45
2022-08-01T04:52:44.385Z,18.43
2022-08-01T04:55:11.423Z,18.44
2022-08-01T04:57:41.025Z,18.46
2022-08-01T05:00:08.451Z,18.46
2022-08-01T05:02:35.202Z,18.46
2022-08-01T05:05:01.693Z,18.49
2022-08-01T05:07:28.180Z,18.49
2022-08-01T05:09:54.767Z,18.50
2022-08-01T05:12:21.728Z,18.50
2022-08-01T05:14:48.169Z,18.51
2022-08-01T05:17:14.868Z,18.51
2022-08-01T05:19:43.865Z,18.49
2022-08-01T05:22:11.089Z,18.47
2022-08-01T05:24:41.301Z,18.46
2022-08-01T05:27:11.659Z,18.44
2022-08-01T05:29:44.366Z,18.45
2022-08-01T05:32:11.554Z,18.44
2022-08-01T05:34:37.989Z,18.43
2022-08-01T05:37:04.464Z,18.38
2022-08-01T05:39:31.176Z,18.36
2022-08-01T05:41:57.674Z,18.37
2022-08-01T05:44:24.184Z,18.37
2022-08-01T05:46:50.642Z,18.33
2022-08-01T05:49:17.201Z,18.33
2022-08-01T05:51:43.748Z,18.36
2022-08-01T05:54:10.365Z,18.38
2022-08-01T05:56:36.880Z,18.42
2022-08-01T05:59:03.845Z,18.44
2022-08-01T06:01:30.295Z,18.46
2022-08-01T06:03:56.793Z,18.48
2022-08-01T06:06:25.326Z,18.51
2022-08-01T06:08:52.842Z,18.54
2022-08-01T06:11:19.342Z,18.53
2022-08-01T06:13:48.718Z,18.50
2022-08-01T06:16:16.257Z,18.51
2022-08-01T06:18:43.006Z,18.54
2022-08-01T06:21:09.581Z,18.54
2022-08-01T06:23:36.226Z,18.60
2022-08-01T06:26:02.976Z,18.61
2022-08-01T06:28:29.570Z,18.63
2022-08-01T06:30:56.698Z,18.60
2022-08-01T06:33:23.249Z,18.54
2022-08-01T06:35:49.718Z,18.53
2022-08-01T06:38:16.207Z,18.51
2022-08-01T06:40:42.934Z,18.44
2022-08-01T06:43:09.439Z,18.38
2022-08-01T06:45:37.524Z,18.34
2022-08-01T06:48:04.520Z,18.33
2022-08-01T06:50:31.046Z,18.27
2022-08-01T06:52:57.513Z,18.27
2022-08-01T06:55:24.027Z,18.29
2022-08-01T06:57:53.528Z,18.29
2022-08-01T07:00:23.502Z,18.24
2022-08-01T07:02:55.604Z,18.21
2022-08-01T07:05:23.546Z,18.25
2022-08-01T07:07:50.421Z,18.27
2022-08-01T07:10:17.629Z,18.30
2022-08-01T07:12:44.093Z,18.32
2022-08-01T07:15:12.197Z,18.34
2022-08-01T07:17:41.056Z,18.37
2022-08-01T07:20:16.060Z,18.39
2022-08-01T07:22:42.869Z,18.40
2022-08-01T07:25:09.870Z,18.44
2022-08-01T07:27:37.526Z,18.43
2022-08-01T07:30:06.382Z,18.40
2022-08-01T07:32:33.117Z,18.37
2022-08-01T07:34:59.555Z,18.33
2022-08-01T07:37:48.652Z,18.32
2022-08-01T07:40:13.769Z,18.30
2022-08-01T07:42:44.253Z,18.29
2022-08-01T07:45:11.985Z,18.30
2022-08-01T07:47:38.733Z,18.24
2022-08-01T07:50:06.111Z,18.23
2022-08-01T07:52:32.661Z,18.21
2022-08-01T07:54:59.833Z,18.21
2022-08-01T07:57:26.537Z,18.25
2022-08-01T07:59:53.026Z,18.32
2022-08-01T08:02:19.567Z,18.38
2022-08-01T08:04:49.139Z,18.48
2022-08-01T08:07:16.072Z,18.50
2022-08-01T08:09:42.651Z,18.49
2022-08-01T08:12:09.764Z,18.51
2022-08-01T08:14:37.031Z,18.56
2022-08-01T08:17:03.780Z,18.60
2022-08-01T08:19:37.425Z,18.68
2022-08-01T08:22:06.735Z,18.79
2022-08-01T08:24:33.720Z,18.86
2022-08-01T08:27:01.343Z,18.93
2022-08-01T08:29:30.793Z,19.02
2022-08-01T08:31:58.410Z,19.11
2022-08-01T08:34:26.339Z,19.12
2022-08-01T08:36:53.801Z,19.04
2022-08-01T08:39:20.389Z,19.11
2022-08-01T08:41:49.057Z,19.11
2022-08-01T08:44:17.690Z,19.13
2022-08-01T08:46:46.719Z,19.10
2022-08-01T08:49:18.562Z,19.10
2022-08-01T08:51:48.090Z,19.12
2022-08-01T08:54:15.883Z,19.20
2022-08-01T08:56:43.332Z,19.25
2022-08-01T08:59:12.188Z,19.31
2022-08-01T09:01:38.844Z,19.31
2022-08-01T09:04:05.905Z,19.35
2022-08-01T09:06:33.524Z,19.38
2022-08-01T09:09:00.311Z,19.44
2022-08-01T09:11:27.600Z,19.59
2022-08-01T09:14:10.884Z,19.70
2022-08-01T09:16:43.235Z,19.73
2022-08-01T09:19:40.668Z,19.76
2022-08-01T09:22:10.426Z,19.91
2022-08-01T09:24:40.393Z,20.00
2022-08-01T09:27:21.649Z,20.07
2022-08-01T09:29:49.699Z,20.20
2022-08-01T09:32:26.255Z,20.36
2022-08-01T09:34:52.720Z,20.51
2022-08-01T09:37:36.995Z,20.68
2022-08-01T09:40:04.501Z,20.79
2022-08-01T09:42:30.926Z,20.78
2022-08-01T09:44:57.380Z,20.81
2022-08-01T09:47:38.795Z,20.88
2022-08-01T09:50:10.844Z,20.90
2022-08-01T09:52:38.141Z,20.86
2022-08-01T09:55:08.610Z,20.88
2022-08-01T09:57:35.269Z,20.86
2022-08-01T10:00:02.936Z,20.85
2022-08-01T10:02:38.238Z,21.01
2022-08-01T10:05:10.434Z,21.19
2022-08-01T10:07:55.629Z,21.31
2022-08-01T10:10:28.754Z,21.36
2022-08-01T10:12:57.622Z,21.53
2022-08-01T10:15:36.994Z,21.58
2022-08-01T10:18:16.190Z,21.65
2022-08-01T10:20:47.942Z,21.79
2022-08-01T10:23:14.998Z,21.85
2022-08-01T10:25:47.092Z,21.90
2022-08-01T10:28:21.713Z,22.21
2022-08-01T10:30:53.069Z,22.35
2022-08-01T10:33:51.417Z,22.36
2022-08-01T10:36:10.622Z,22.46
2022-08-01T10:38:37.784Z,22.45
2022-08-01T10:41:06.608Z,22.54
2022-08-01T10:43:35.549Z,22.64
2022-08-01T10:46:03.041Z,22.70
2022-08-01T10:48:44.119Z,22.78
2022-08-01T10:51:18.263Z,22.89
2022-08-01T10:53:53.907Z,23.00
2022-08-01T10:56:27.071Z,23.03
2022-08-01T10:59:06.263Z,22.83
2022-08-01T11:01:38.433Z,22.67
2022-08-01T11:04:16.407Z,22.59
2022-08-01T11:06:50.805Z,22.58
2022-08-01T11:09:36.412Z,22.55
2022-08-01T11:12:13.669Z,22.46
2022-08-01T11:14:59.638Z,22.41
2022-08-01T11:17:49.570Z,22.34
2022-08-01T11:21:57.092Z,22.31
2022-08-01T11:23:49.463Z,22.43
2022-08-01T11:26:17.769Z,22.48
2022-08-01T11:29:10.800Z,22.62
2022-08-01T11:31:37.514Z,22.66
2022-08-01T11:34:04.686Z,22.63
2022-08-01T11:36:57.634Z,22.53
2022-08-01T11:39:19.362Z,22.64
2022-08-01T11:41:47.445Z,22.71
2022-08-01T11:44:16.409Z,22.86
2022-08-01T11:46:46.965Z,22.95
2022-08-01T11:49:36.996Z,22.93
2022-08-01T11:52:20.738Z,23.00
2022-08-01T11:54:55.262Z,23.27
2022-08-01T11:57:34.070Z,23.52
2022-08-01T12:00:08.443Z,23.62
2022-08-01T12:02:35.788Z,23.71
2022-08-01T12:05:12.756Z,23.65
2022-08-01T12:07:42.538Z,23.59
2022-08-01T12:10:12.751Z,23.69
2022-08-01T12:12:51.062Z,23.90
2022-08-01T12:15:19.425Z,24.23
2022-08-01T12:17:58.594Z,24.31
2022-08-01T12:20:31.290Z,24.36
2022-08-01T12:23:00.950Z,24.10
2022-08-01T12:25:27.834Z,23.91
2022-08-01T12:27:56.450Z,23.91
2022-08-01T12:30:25.285Z,23.99
2022-08-01T12:32:53.791Z,24.09
2022-08-01T12:35:25.720Z,24.08
2022-08-01T12:37:57.035Z,24.04
2022-08-01T12:40:26.972Z,24.14
2022-08-01T12:42:56.187Z,24.34
2022-08-01T12:45:26.225Z,24.35
2022-08-01T12:47:54.585Z,24.51
2022-08-01T12:50:23.476Z,24.49
2022-08-01T12:52:51.442Z,24.67
2022-08-01T12:55:23.098Z,24.67
2022-08-01T12:57:51.976Z,24.76
2022-08-01T13:00:26.753Z,24.75
2022-08-01T13:03:08.306Z,24.89
2022-08-01T13:05:44.881Z,24.78
2022-08-01T13:08:16.800Z,24.69
2022-08-01T13:10:44.143Z,24.79
2022-08-01T13:13:12.027Z,24.98
2022-08-01T13:16:06.361Z,24.99
2022-08-01T13:18:34.447Z,24.87
2022-08-01T13:21:16.984Z,24.82
2022-08-01T13:24:02.784Z,24.81
2022-08-01T13:26:41.652Z,24.77
2022-08-01T13:29:09.997Z,24.92
2022-08-01T13:31:37.740Z,25.11
2022-08-01T13:34:04.695Z,25.00
2022-08-01T13:36:32.230Z,25.01
2022-08-01T13:39:18.619Z,25.09
2022-08-01T13:41:46.204Z,25.09
2022-08-01T13:44:12.760Z,24.98
2022-08-01T13:46:49.326Z,24.98
2022-08-01T13:49:17.719Z,24.95
2022-08-01T13:51:46.812Z,24.89
2022-08-01T13:54:13.545Z,24.86
2022-08-01T13:56:40.035Z,24.91
2022-08-01T13:59:07.568Z,25.07
2022-08-01T14:01:34.932Z,25.22
2022-08-01T14:04:01.986Z,25.23
2022-08-01T14:06:28.595Z,25.14
2022-08-01T14:08:55.397Z,25.20
2022-08-01T14:11:22.016Z,25.14
2022-08-01T14:13:48.526Z,25.25
2022-08-01T14:16:15.393Z,25.35
2022-08-01T14:18:42.138Z,25.25
2022-08-01T14:21:10.847Z,25.15
2022-08-01T14:23:37.381Z,25.02
2022-08-01T14:26:09.801Z,24.87
2022-08-01T14:28:39.346Z,24.97
2022-08-01T14:31:09.131Z,24.91
2022-08-01T14:33:35.738Z,24.92
2022-08-01T14:36:28.800Z,25.00
2022-08-01T14:38:50.234Z,25.19
2022-08-01T14:41:16.869Z,25.21
2022-08-01T14:43:43.600Z,25.17
2022-08-01T14:46:11.033Z,25.00
2022-08-01T14:48:38.032Z,24.90
2022-08-01T14:51:05.252Z,24.85
2022-08-01T14:53:34.441Z,24.88
2022-08-01T14:56:04.034Z,24.89
2022-08-01T14:58:30.626Z,25.07
2022-08-01T15:00:59.294Z,25.07
2022-08-01T15:03:26.517Z,25.08
2022-08-01T15:05:53.223Z,24.94
2022-08-01T15:08:19.751Z,25.00
2022-08-01T15:10:46.222Z,25.09
2022-08-01T15:13:12.694Z,24.89
2022-08-01T15:15:39.245Z,24.91
2022-08-01T15:18:06.015Z,24.79
2022-08-01T15:20:33.920Z,24.65
2022-08-01T15:23:00.759Z,24.58
2022-08-01T15:25:41.317Z,24.72
2022-08-01T15:28:10.482Z,24.87
2022-08-01T15:30:37.094Z,25.04
2022-08-01T15:33:03.652Z,24.99
2022-08-01T15:35:30.300Z,24.86
2022-08-01T15:37:56.902Z,24.85
2022-08-01T15:40:23.500Z,24.81
2022-08-01T15:42:49.985Z,24.89
2022-08-01T15:45:44.491Z,25.00
2022-08-01T15:48:06.114Z,24.90
2022-08-01T15:50:32.695Z,24.96
2022-08-01T15:52:59.272Z,25.05
2022-08-01T15:55:25.722Z,25.11
2022-08-01T15:57:52.227Z,25.02
2022-08-01T16:00:18.741Z,24.89
2022-08-01T16:02:45.475Z,25.00
2022-08-01T16:05:11.992Z,24.98
2022-08-01T16:07:59.912Z,24.88
2022-08-01T16:10:25.077Z,24.83
2022-08-01T16:12:51.577Z,24.97
2022-08-01T16:15:18.052Z,25.00
2022-08-01T16:17:44.867Z,25.02
2022-08-01T16:20:11.596Z,25.06
2022-08-01T16:22:38.069Z,25.09
2022-08-01T16:25:05.330Z,25.22
2022-08-01T16:27:31.918Z,25.46
2022-08-01T16:29:58.435Z,25.66
2022-08-01T16:32:40.297Z,25.74
2022-08-01T16:35:09.532Z,25.69
2022-08-01T16:37:36.259Z,25.85
2022-08-01T16:40:03.857Z,25.83
2022-08-01T16:42:30.401Z,25.67
2022-08-01T16:44:56.911Z,26.01
2022-08-01T16:47:23.375Z,26.48
2022-08-01T16:49:50.009Z,26.52
2022-08-01T16:52:16.738Z,26.56
2022-08-01T16:54:43.330Z,26.63
2022-08-01T16:57:10.310Z,26.84
2022-08-01T16:59:41.350Z,27.01
2022-08-01T17:02:09.511Z,27.07
2022-08-01T17:04:36.055Z,27.11
2022-08-01T17:07:02.603Z,27.37
2022-08-01T17:09:29.095Z,27.50
2022-08-01T17:11:55.530Z,27.59
2022-08-01T17:14:21.998Z,27.44
2022-08-01T17:16:48.522Z,27.51
2022-08-01T17:19:15.135Z,27.58
2022-08-01T17:21:42.131Z,27.77
2022-08-01T17:24:08.936Z,27.84
2022-08-01T17:26:35.435Z,27.85
2022-08-01T17:29:01.882Z,27.99
2022-08-01T17:31:28.365Z,27.81
2022-08-01T17:33:55.372Z,27.72
2022-08-01T17:36:22.221Z,27.65
2022-08-01T17:38:48.947Z,27.80
2022-08-01T17:41:15.502Z,27.92
2022-08-01T17:43:42.050Z,27.93
2022-08-01T17:46:08.881Z,27.82
2022-08-01T17:48:35.428Z,27.54
2022-08-01T17:51:01.913Z,27.29
2022-08-01T17:53:28.713Z,27.18
2022-08-01T17:55:58.584Z,26.69
2022-08-01T17:58:49.770Z,26.25
2022-08-01T18:01:14.482Z,25.81
2022-08-01T18:03:41.907Z,25.49
2022-08-01T18:06:17.545Z,25.25
2022-08-01T18:08:46.899Z,25.42
2022-08-01T18:11:14.992Z,25.20
2022-08-01T18:13:41.801Z,24.95
2022-08-01T18:16:11.120Z,24.70
2022-08-01T18:18:38.753Z,24.30
2022-08-01T18:21:06.307Z,23.98
2022-08-01T18:23:34.096Z,23.75
2022-08-01T18:26:02.466Z,23.57
2022-08-01T18:28:35.066Z,23.42
2022-08-01T18:31:01.982Z,23.22
2022-08-01T18:33:28.501Z,23.04
2022-08-01T18:36:00.649Z,22.97
2022-08-01T18:38:30.043Z,22.88
2022-08-01T18:40:57.285Z,22.78
2022-08-01T18:43:23.897Z,22.61
2022-08-01T18:45:50.468Z,22.50
2022-08-01T18:48:16.918Z,22.47
2022-08-01T18:50:43.458Z,22.40
2022-08-01T18:53:10.411Z,22.34
2022-08-01T18:55:36.845Z,22.29
2022-08-01T18:58:03.773Z,22.20
2022-08-01T19:00:30.515Z,22.11
2022-08-01T19:02:57.045Z,22.01
2022-08-01T19:05:24.052Z,21.93
2022-08-01T19:08:06.243Z,21.90
2022-08-01T19:10:36.032Z,21.86
2022-08-01T19:13:03.019Z,21.78
2022-08-01T19:15:29.807Z,21.69
2022-08-01T19:17:56.445Z,21.63
2022-08-01T19:20:23.162Z,21.58
2022-08-01T19:22:49.754Z,21.50
2022-08-01T19:25:16.568Z,21.37
2022-08-01T19:27:46.791Z,21.25
2022-08-01T19:30:14.428Z,21.11
2022-08-01T19:32:43.491Z,20.98
2022-08-01T19:35:11.880Z,20.88
2022-08-01T19:37:48.951Z,20.79
2022-08-01T19:40:27.547Z,20.67
2022-08-01T19:42:56.527Z,20.56
2022-08-01T19:45:23.442Z,20.47
2022-08-01T19:47:57.258Z,20.39
2022-08-01T19:50:28.798Z,20.30
2022-08-01T19:52:57.215Z,20.21
2022-08-01T19:55:24.225Z,20.11
2022-08-01T19:58:16.952Z,20.01
2022-08-01T20:00:40.073Z,19.95
2022-08-01T20:03:08.983Z,19.88
2022-08-01T20:05:37.114Z,19.80
2022-08-01T20:08:05.650Z,19.76
2022-08-01T20:10:32.234Z,19.70
2022-08-01T20:12:58.827Z,19.62
2022-08-01T20:15:25.797Z,19.54
2022-08-01T20:17:52.277Z,19.47
2022-08-01T20:20:18.799Z,19.42
2022-08-01T20:22:48.505Z,19.33
2022-08-01T20:25:17.480Z,19.19
2022-08-01T20:27:44.737Z,19.10
2022-08-01T20:30:12.328Z,19.06
2022-08-01T20:32:40.859Z,19.04
2022-08-01T20:35:08.071Z,18.96
2022-08-01T20:38:05.814Z,18.92
2022-08-01T20:40:26.840Z,18.81
2022-08-01T20:42:55.289Z,18.79
2022-08-01T20:45:22.196Z,18.76
2022-08-01T20:47:50.488Z,18.71
2022-08-01T20:50:53.156Z,18.70
2022-08-01T20:53:22.714Z,18.63
2022-08-01T20:55:54.112Z,18.55
2022-08-01T20:58:32.028Z,18.49
2022-08-01T21:01:03.041Z,18.46
2022-08-01T21:03:41.914Z,18.45
2022-08-01T21:06:14.734Z,18.37
2022-08-01T21:08:43.939Z,18.32
2022-08-01T21:11:17.016Z,18.29
2022-08-01T21:13:49.142Z,18.26
2022-08-01T21:16:24.076Z,18.21
2022-08-01T21:21:50.861Z,18.08
2022-08-01T21:24:19.282Z,18.03
2022-08-01T21:26:46.472Z,17.99
2022-08-01T21:29:14.070Z,17.93
2022-08-01T21:31:41.811Z,17.87
2022-08-01T21:34:09.556Z,17.78
2022-08-01T21:36:36.615Z,17.72
2022-08-01T21:39:06.041Z,17.66
2022-08-01T21:42:01.687Z,17.62
2022-08-01T21:44:19.906Z,17.58
2022-08-01T21:46:48.199Z,17.55
2022-08-01T21:49:14.822Z,17.53
2022-08-01T21:51:51.932Z,17.53
2022-08-01T21:54:34.822Z,17.47
2022-08-01T21:57:04.341Z,17.37
2022-08-01T21:59:55.831Z,17.29
2022-08-01T22:02:41.688Z,17.27
2022-08-01T22:05:09.679Z,17.26
2022-08-01T22:07:44.735Z,17.24
2022-08-01T22:10:14.124Z,17.23
2022-08-01T22:12:40.734Z,17.18
2022-08-01T22:15:08.390Z,17.13
2022-08-01T22:17:35.145Z,17.07
2022-08-01T22:20:01.787Z,17.06
2022-08-01T22:22:51.651Z,17.04
2022-08-01T22:25:18.015Z,17.00
2022-08-01T22:28:08.948Z,16.95
2022-08-01T22:30:33.608Z,16.91
2022-08-01T22:33:07.796Z,16.89
2022-08-01T22:35:48.361Z,16.86
2022-08-01T22:38:17.333Z,16.83
2022-08-01T22:40:49.700Z,16.81
2022-08-01T22:43:26.234Z,16.77
2022-08-01T22:46:17.242Z,16.75
2022-08-01T22:48:55.775Z,16.72
2022-08-01T22:51:31.670Z,16.70
2022-08-01T22:54:11.573Z,16.68
2022-08-01T22:56:55.669Z,16.64
2022-08-01T22:59:49.143Z,16.62
2022-08-01T23:02:17.253Z,16.61
2022-08-01T23:04:47.650Z,16.55
2022-08-01T23:07:22.268Z,16.48
2022-08-01T23:09:54.320Z,16.47
2022-08-01T23:12:24.517Z,16.48
2022-08-01T23:14:56.183Z,16.49
2022-08-01T23:17:27.275Z,16.50
2022-08-01T23:20:00.735Z,16.52
2022-08-01T23:22:30.216Z,16.50
2022-08-01T23:25:04.395Z,16.50
2022-08-01T23:27:52.068Z,16.52
2022-08-01T23:30:25.707Z,16.53
2022-08-01T23:32:52.414Z,16.52
2022-08-01T23:35:19.374Z,16.52
2022-08-01T23:37:45.891Z,16.50
2022-08-01T23:40:12.705Z,16.47
2022-08-01T23:42:39.428Z,16.40
2022-08-01T23:45:06.824Z,16.34
2022-08-01T23:47:33.486Z,16.33
2022-08-01T23:50:00.246Z,16.31
2022-08-01T23:52:32.033Z,16.31
2022-08-01T23:55:00.135Z,16.26
2022-08-01T23:57:41.375Z,16.27
